createdAt,value
2018-06-11T00:02:01.506Z,4.03
2018-06-11T00:04:43.370Z,3.73
2018-06-11T00:07:21.594Z,3.77
2018-06-11T00:10:10.632Z,4.40
2018-06-11T00:13:12.447Z,4.50
2018-06-11T00:15:58.563Z,4.20
2018-06-11T00:19:06.903Z,4.10
2018-06-11T00:22:42.865Z,4.30
2018-06-11T00:25:25.842Z,3.93
2018-06-11T00:28:05.957Z,3.77
2018-06-11T00:30:53.705Z,4.23
2018-06-11T00:33:30.637Z,4.10
2018-06-11T00:36:02.944Z,4.90
2018-06-11T00:38:54.763Z,3.67
2018-06-11T00:42:07.448Z,4.10
2018-06-11T00:44:43.474Z,4.80
2018-06-11T00:47:20.656Z,3.80
2018-06-11T00:49:59.294Z,4.17
2018-06-11T00:52:35.753Z,3.87
2018-06-11T00:55:17.922Z,4.47
2018-06-11T00:57:55.698Z,4.27
2018-06-11T01:04:00.858Z,4.13
2018-06-11T01:06:35.218Z,4.70
2018-06-11T01:09:09.589Z,4.13
2018-06-11T01:11:41.190Z,4.47
2018-06-11T01:14:23.188Z,4.17
2018-06-11T01:16:57.918Z,4.00
2018-06-11T01:19:34.262Z,5.00
2018-06-11T01:22:06.166Z,4.50
2018-06-11T01:24:44.783Z,4.63
2018-06-11T01:27:36.731Z,4.50
2018-06-11T01:30:19.692Z,4.73
2018-06-11T01:32:50.578Z,4.80
2018-06-11T01:35:27.570Z,4.20
2018-06-11T01:38:00.973Z,4.47
2018-06-11T01:40:59.978Z,4.10
2018-06-11T01:43:33.987Z,4.20
2018-06-11T01:46:13.667Z,4.37
2018-06-11T01:48:45.298Z,4.60
2018-06-11T01:51:21.750Z,4.40
2018-06-11T01:54:04.402Z,4.90
2018-06-11T01:56:38.494Z,5.47
2018-06-11T01:59:11.008Z,4.80
2018-06-11T02:01:46.348Z,4.40
2018-06-11T02:04:21.886Z,4.67
2018-06-11T02:06:58.626Z,4.47
2018-06-11T02:09:36.266Z,4.80
2018-06-11T02:12:11.184Z,5.03
2018-06-11T02:14:51.854Z,4.37
2018-06-11T02:17:35.162Z,4.80
2018-06-11T02:20:12.996Z,4.70
2018-06-11T02:22:47.286Z,5.07
2018-06-11T02:25:25.015Z,4.73
2018-06-11T02:28:06.390Z,4.60
2018-06-11T02:30:40.339Z,4.70
2018-06-11T02:33:19.957Z,5.40
2018-06-11T02:36:04.385Z,5.03
2018-06-11T02:38:35.099Z,5.07
2018-06-11T02:41:12.106Z,4.80
2018-06-11T02:43:52.343Z,4.67
2018-06-11T02:46:29.152Z,5.17
2018-06-11T02:49:00.574Z,4.80
2018-06-11T02:51:33.815Z,4.60
2018-06-11T02:54:08.351Z,5.13
2018-06-11T02:56:49.113Z,5.47
2018-06-11T02:59:22.091Z,5.13
2018-06-11T03:05:09.797Z,4.40
2018-06-11T03:07:59.887Z,4.93
2018-06-11T03:10:38.920Z,5.47
2018-06-11T03:13:13.338Z,5.07
2018-06-11T03:15:53.290Z,4.70
2018-06-11T03:18:27.604Z,5.67
2018-06-11T03:21:00.266Z,5.27
2018-06-11T03:23:37.320Z,5.13
2018-06-11T03:26:09.030Z,5.80
2018-06-11T03:28:53.690Z,4.63
2018-06-11T03:31:24.899Z,4.20
2018-06-11T03:34:05.190Z,5.93
2018-06-11T03:36:41.458Z,4.90
2018-06-11T03:39:18.841Z,4.93
2018-06-11T03:42:03.315Z,5.27
2018-06-11T03:44:37.006Z,5.63
2018-06-11T03:47:09.979Z,5.50
2018-06-11T03:49:42.463Z,5.20
2018-06-11T03:52:18.411Z,4.97
2018-06-11T03:54:56.647Z,4.97
2018-06-11T03:57:28.391Z,5.33
2018-06-11T04:00:00.198Z,4.80
2018-06-11T04:02:40.199Z,4.50
2018-06-11T04:05:17.301Z,5.30
2018-06-11T04:08:00.803Z,5.70
2018-06-11T04:10:34.603Z,4.77
2018-06-11T04:13:06.979Z,4.93
2018-06-11T04:15:39.726Z,5.07
2018-06-11T04:18:17.271Z,14.53
2018-06-11T04:20:50.788Z,7.83
2018-06-11T04:23:25.122Z,5.40
2018-06-11T04:25:56.182Z,5.27
2018-06-11T04:28:26.858Z,5.40
2018-06-11T04:31:03.910Z,4.73
2018-06-11T04:33:38.079Z,4.30
2018-06-11T04:36:19.464Z,4.67
2018-06-11T04:39:04.227Z,4.40
2018-06-11T04:41:37.854Z,5.90
2018-06-11T04:44:14.534Z,5.60
2018-06-11T04:46:46.627Z,5.87
2018-06-11T04:49:38.293Z,4.73
2018-06-11T04:52:19.122Z,5.73
2018-06-11T04:54:55.503Z,7.10
2018-06-11T04:57:31.770Z,8.87
2018-06-11T05:00:05.510Z,7.27
2018-06-11T05:02:39.086Z,7.80
2018-06-11T05:05:11.920Z,6.50
2018-06-11T05:07:49.530Z,7.43
2018-06-11T05:10:28.200Z,6.17
2018-06-11T05:13:07.148Z,5.67
2018-06-11T05:15:43.254Z,5.43
2018-06-11T05:21:17.658Z,5.87
2018-06-11T05:24:01.297Z,5.53
2018-06-11T05:26:37.524Z,5.20
2018-06-11T05:29:11.537Z,5.10
2018-06-11T05:31:42.286Z,5.23
2018-06-11T05:34:19.053Z,9.63
2018-06-11T05:36:55.583Z,5.10
2018-06-11T05:42:53.658Z,5.33
2018-06-11T05:45:31.547Z,6.10
2018-06-11T05:48:06.394Z,6.07
2018-06-11T05:50:40.577Z,5.63
2018-06-11T05:53:15.556Z,5.33
2018-06-11T05:55:50.649Z,5.07
2018-06-11T05:58:24.911Z,5.73
2018-06-11T06:01:01.585Z,5.30
2018-06-11T06:03:39.574Z,5.00
2018-06-11T06:06:23.559Z,5.07
2018-06-11T06:08:58.628Z,4.77
2018-06-11T06:11:43.179Z,4.90
2018-06-11T06:14:27.567Z,4.63
2018-06-11T06:17:03.147Z,4.70
2018-06-11T06:19:47.598Z,4.80
2018-06-11T06:22:30.719Z,4.93
2018-06-11T06:25:02.651Z,4.93
2018-06-11T06:27:48.714Z,6.70
2018-06-11T06:30:29.730Z,6.00
2018-06-11T06:33:13.772Z,6.70
2018-06-11T06:35:47.830Z,5.63
2018-06-11T06:38:21.197Z,5.10
2018-06-11T06:40:53.806Z,5.50
2018-06-11T06:43:24.688Z,5.73
2018-06-11T06:45:59.179Z,4.03
2018-06-11T06:48:33.371Z,4.50
2018-06-11T06:51:11.471Z,4.77
2018-06-11T06:53:41.996Z,5.43
2018-06-11T06:56:24.482Z,5.27
2018-06-11T06:58:55.038Z,5.10
2018-06-11T07:01:29.246Z,5.40
2018-06-11T07:04:15.657Z,5.50
2018-06-11T07:06:47.518Z,5.47
2018-06-11T07:09:25.486Z,5.40
2018-06-11T07:12:02.094Z,5.97
2018-06-11T07:14:33.870Z,6.13
2018-06-11T07:17:06.498Z,5.00
2018-06-11T07:19:39.728Z,5.80
2018-06-11T07:25:20.519Z,5.90
2018-06-11T07:27:58.030Z,5.10
2018-06-11T07:30:50.354Z,5.13
2018-06-11T07:33:28.763Z,4.80
2018-06-11T07:36:00.320Z,5.60
2018-06-11T07:38:31.414Z,4.28
2018-06-11T07:41:15.510Z,6.58
2018-06-11T07:43:58.260Z,4.22
2018-06-11T07:46:43.350Z,4.22
2018-06-11T07:49:18.366Z,3.50
2018-06-11T07:51:50.564Z,4.12
2018-06-11T07:54:21.919Z,3.55
2018-06-11T07:56:56.582Z,3.87
2018-06-11T07:59:30.926Z,4.12
2018-06-11T08:02:01.784Z,3.98
2018-06-11T08:04:35.874Z,4.25
2018-06-11T08:07:06.670Z,5.00
2018-06-11T08:09:49.168Z,4.87
2018-06-11T08:12:26.366Z,4.72
2018-06-11T08:15:01.299Z,5.40
2018-06-11T08:17:35.340Z,5.37
2018-06-11T08:20:12.322Z,4.70
2018-06-11T08:22:48.464Z,5.70
2018-06-11T08:25:19.059Z,5.77
2018-06-11T08:27:51.190Z,4.43
2018-06-11T08:30:29.846Z,4.47
2018-06-11T08:33:02.622Z,4.43
2018-06-11T08:35:43.290Z,4.43
2018-06-11T08:38:24.604Z,4.63
2018-06-11T08:40:57.919Z,4.97
2018-06-11T08:43:33.888Z,5.00
2018-06-11T08:46:06.411Z,5.00
2018-06-11T08:48:40.625Z,4.87
2018-06-11T08:51:12.883Z,5.08
2018-06-11T08:53:54.815Z,4.60
2018-06-11T08:56:48.189Z,5.10
2018-06-11T08:59:24.245Z,4.12
2018-06-11T09:01:56.175Z,6.12
2018-06-11T09:04:27.358Z,5.20
2018-06-11T09:06:58.672Z,4.75
2018-06-11T09:09:29.236Z,7.62
2018-06-11T09:12:01.069Z,5.00
2018-06-11T09:14:33.659Z,5.25
2018-06-11T09:17:05.513Z,5.30
2018-06-11T09:19:39.563Z,5.15
2018-06-11T09:22:10.456Z,4.55
2018-06-11T09:24:44.390Z,5.47
2018-06-11T09:27:18.627Z,5.28
2018-06-11T09:29:49.359Z,5.97
2018-06-11T09:32:19.806Z,5.60
2018-06-11T09:34:51.834Z,6.37
2018-06-11T09:37:24.527Z,5.83
2018-06-11T09:39:55.024Z,5.35
2018-06-11T09:42:31.689Z,5.47
2018-06-11T09:45:12.131Z,4.75
2018-06-11T09:47:58.943Z,4.62
2018-06-11T09:50:35.154Z,6.10
2018-06-11T09:53:06.311Z,5.05
2018-06-11T09:55:42.672Z,5.55
2018-06-11T09:58:13.422Z,5.50
2018-06-11T10:00:49.982Z,5.30
2018-06-11T10:03:25.766Z,5.00
2018-06-11T10:05:58.185Z,6.85
2018-06-11T10:08:46.225Z,5.42
2018-06-11T10:11:28.425Z,6.08
2018-06-11T10:14:05.280Z,4.40
2018-06-11T10:16:43.922Z,4.62
2018-06-11T10:19:21.066Z,5.12
2018-06-11T10:21:54.530Z,5.97
2018-06-11T10:24:25.250Z,5.87
2018-06-11T10:26:57.935Z,5.53
2018-06-11T10:29:33.947Z,4.12
2018-06-11T10:32:04.825Z,5.85
2018-06-11T10:34:38.266Z,4.23
2018-06-11T10:37:09.970Z,4.80
2018-06-11T10:39:40.997Z,5.22
2018-06-11T10:42:15.607Z,5.27
2018-06-11T10:44:46.022Z,6.90
2018-06-11T10:47:16.927Z,5.57
2018-06-11T10:50:07.275Z,5.08
2018-06-11T10:52:49.927Z,5.17
2018-06-11T10:55:29.961Z,6.00
2018-06-11T10:58:07.065Z,5.95
2018-06-11T11:00:45.742Z,6.83
2018-06-11T11:03:16.498Z,5.50
2018-06-11T11:06:09.225Z,4.83
2018-06-11T11:08:45.225Z,7.13
2018-06-11T11:11:21.546Z,5.20
2018-06-11T11:13:54.350Z,5.57
2018-06-11T11:16:26.901Z,5.97
2018-06-11T11:19:08.440Z,5.93
2018-06-11T11:21:39.019Z,5.30
2018-06-11T11:24:17.210Z,6.90
2018-06-11T11:26:49.191Z,5.50
2018-06-11T11:29:26.210Z,5.43
2018-06-11T11:32:00.999Z,5.83
2018-06-11T11:34:32.480Z,5.73
2018-06-11T11:37:11.554Z,5.97
2018-06-11T11:39:47.803Z,6.00
2018-06-11T11:42:22.063Z,6.37
2018-06-11T11:44:55.902Z,5.90
2018-06-11T11:47:28.446Z,5.77
2018-06-11T11:49:59.089Z,5.77
2018-06-11T11:52:29.714Z,6.90
2018-06-11T11:55:01.159Z,6.67
2018-06-11T11:57:33.778Z,6.87
2018-06-11T12:00:20.968Z,7.27
2018-06-11T12:03:04.343Z,6.47
2018-06-11T12:05:41.614Z,6.80
2018-06-11T12:08:18.059Z,8.53
2018-06-11T12:10:54.337Z,7.40
2018-06-11T12:13:32.066Z,8.00
2018-06-11T12:16:04.265Z,8.47
2018-06-11T12:18:44.410Z,7.80
2018-06-11T12:21:16.102Z,8.00
2018-06-11T12:23:54.868Z,7.37
2018-06-11T12:26:28.830Z,7.83
2018-06-11T12:29:18.529Z,7.17
2018-06-11T12:31:55.077Z,6.50
2018-06-11T12:34:35.585Z,7.10
2018-06-11T12:37:06.410Z,5.57
2018-06-11T12:39:42.443Z,5.27
2018-06-11T12:42:26.119Z,5.57
2018-06-11T12:45:00.588Z,5.87
2018-06-11T12:47:33.460Z,5.80
2018-06-11T12:50:10.303Z,6.10
2018-06-11T12:52:41.776Z,5.93
2018-06-11T12:55:17.781Z,5.53
2018-06-11T12:57:50.343Z,5.50
2018-06-11T13:00:21.879Z,5.87
2018-06-11T13:03:02.386Z,5.33
2018-06-11T13:05:33.472Z,5.90
2018-06-11T13:08:16.437Z,5.63
2018-06-11T13:10:59.356Z,5.70
2018-06-11T13:13:30.480Z,5.77
2018-06-11T13:16:06.970Z,5.87
2018-06-11T13:18:39.367Z,6.50
2018-06-11T13:21:14.810Z,6.67
2018-06-11T13:23:56.893Z,6.77
2018-06-11T13:26:39.941Z,6.37
2018-06-11T13:32:16.511Z,6.90
2018-06-11T13:34:58.857Z,6.47
2018-06-11T13:37:37.629Z,6.53
2018-06-11T13:40:15.108Z,6.10
2018-06-11T13:43:11.175Z,9.50
2018-06-11T13:50:20.059Z,7.10
2018-06-11T13:53:13.219Z,8.77
2018-06-11T13:55:46.226Z,9.37
2018-06-11T13:58:31.043Z,9.70
2018-06-11T14:01:40.406Z,9.37
2018-06-11T14:10:10.788Z,10.10
2018-06-11T14:13:02.757Z,11.97
2018-06-11T14:16:38.163Z,12.47
2018-06-11T14:19:37.940Z,10.60
2018-06-11T14:23:09.608Z,9.77
2018-06-11T14:25:46.126Z,9.80
2018-06-11T14:31:52.599Z,8.77
2018-06-11T14:35:12.117Z,8.47
2018-06-11T14:37:48.117Z,10.67
2018-06-11T14:40:25.340Z,13.40
2018-06-11T14:43:01.668Z,10.93
2018-06-11T14:47:22.042Z,10.37
2018-06-11T14:50:07.635Z,9.90
2018-06-11T14:52:42.797Z,8.97
2018-06-11T14:58:26.888Z,8.93
2018-06-11T15:01:04.850Z,9.50
2018-06-11T15:03:38.634Z,8.73
2018-06-11T15:06:30.422Z,5.73
2018-06-11T15:09:03.127Z,6.57
2018-06-11T15:12:37.798Z,5.50
2018-06-11T15:15:16.590Z,5.67
2018-06-11T15:17:54.991Z,5.53
2018-06-11T15:20:27.742Z,6.43
2018-06-11T15:23:06.594Z,5.37
2018-06-11T15:25:53.695Z,3.90
2018-06-11T15:28:43.059Z,2.30
2018-06-11T15:36:24.742Z,2.87
2018-06-11T15:39:08.596Z,2.70
2018-06-11T15:41:52.826Z,3.20
2018-06-11T15:44:34.415Z,1.90
2018-06-11T15:47:10.281Z,2.67
2018-06-11T15:49:44.643Z,1.77
2018-06-11T15:52:31.443Z,2.30
2018-06-11T15:55:51.107Z,1.97
2018-06-11T15:58:31.123Z,1.80
2018-06-11T16:01:02.566Z,2.33
2018-06-11T16:04:09.387Z,1.80
2018-06-11T16:06:54.987Z,2.30
2018-06-11T16:09:27.778Z,2.20
2018-06-11T16:11:58.373Z,1.80
2018-06-11T16:14:53.200Z,1.77
2018-06-11T16:17:36.205Z,1.90
2018-06-11T16:20:12.747Z,1.60
2018-06-11T16:22:53.218Z,1.80
2018-06-11T16:25:31.029Z,2.03
2018-06-11T16:28:14.385Z,2.80
2018-06-11T16:30:49.198Z,1.87
2018-06-11T16:33:31.070Z,1.27
2018-06-11T16:36:20.773Z,1.37
2018-06-11T16:38:59.738Z,1.43
2018-06-11T16:41:45.804Z,1.20
2018-06-11T16:44:28.454Z,2.00
2018-06-11T16:47:06.306Z,1.60
2018-06-11T16:49:43.120Z,1.13
2018-06-11T16:52:30.326Z,1.53
2018-06-11T16:55:01.400Z,1.40
2018-06-11T16:57:33.858Z,1.20
2018-06-11T17:00:11.622Z,1.93
2018-06-11T17:02:55.524Z,1.97
2018-06-11T17:05:38.113Z,1.43
2018-06-11T17:08:12.310Z,1.57
2018-06-11T17:10:49.178Z,1.40
2018-06-11T17:13:30.868Z,0.83
2018-06-11T17:16:08.692Z,1.37
2018-06-11T17:21:11.484Z,0.93
2018-06-11T17:24:22.160Z,1.63
2018-06-11T17:27:04.773Z,1.47
2018-06-11T17:33:11.491Z,2.13
2018-06-11T17:39:03.900Z,1.30
2018-06-11T17:42:17.463Z,1.00
2018-06-11T17:45:00.133Z,1.40
2018-06-11T17:47:34.741Z,1.97
2018-06-11T17:50:25.487Z,1.10
2018-06-11T17:53:01.906Z,0.93
2018-06-11T17:55:46.072Z,1.07
2018-06-11T17:58:31.474Z,1.80
2018-06-11T18:01:22.624Z,1.53
2018-06-11T18:04:01.873Z,2.37
2018-06-11T18:09:08.361Z,1.40
2018-06-11T18:11:55.046Z,1.40
2018-06-11T18:15:04.570Z,1.30
2018-06-11T18:17:54.594Z,1.17
2018-06-11T20:11:36.979Z,2.70
2018-06-11T20:14:13.625Z,2.30
2018-06-11T20:16:52.326Z,2.00
2018-06-11T20:19:27.584Z,2.83
2018-06-11T20:22:08.949Z,1.77
2018-06-11T20:24:40.619Z,1.90
2018-06-11T20:27:17.526Z,2.00
2018-06-11T20:29:53.281Z,2.20
2018-06-11T20:32:26.616Z,2.10
2018-06-11T20:35:04.864Z,2.40
2018-06-11T20:37:39.901Z,3.47
2018-06-11T20:40:10.744Z,3.50
2018-06-11T20:42:49.581Z,7.53
2018-06-11T20:45:23.714Z,9.40
2018-06-11T20:48:09.826Z,9.97
2018-06-11T20:50:46.930Z,9.57
2018-06-11T20:53:23.029Z,8.83
2018-06-11T20:55:57.103Z,7.50
2018-06-11T20:58:34.329Z,4.03
2018-06-11T21:01:12.011Z,3.10
2018-06-11T21:03:43.819Z,9.73
2018-06-11T21:06:22.175Z,12.37
2018-06-11T21:08:56.322Z,8.77
2018-06-11T21:11:28.125Z,4.73
2018-06-11T21:13:59.591Z,4.60
2018-06-11T21:16:30.537Z,3.87
2018-06-11T21:19:04.799Z,4.00
2018-06-11T21:21:43.641Z,3.67
2018-06-11T21:24:18.339Z,4.53
2018-06-11T21:29:55.128Z,3.67
2018-06-11T21:32:29.328Z,2.57
2018-06-11T21:35:11.456Z,3.13
2018-06-11T21:37:49.450Z,2.20
2018-06-11T21:40:20.638Z,1.93
2018-06-11T21:42:54.603Z,2.27
2018-06-11T21:45:29.020Z,2.17
2018-06-11T21:48:07.945Z,1.80
2018-06-11T21:50:48.348Z,2.20
2018-06-11T21:53:19.236Z,1.80
2018-06-11T21:55:56.825Z,2.13
2018-06-11T21:58:39.529Z,1.90
2018-06-11T22:01:24.903Z,1.70
2018-06-11T22:04:02.079Z,2.20
2018-06-11T22:06:39.725Z,2.23
2018-06-11T22:09:12.079Z,2.63
2018-06-11T22:11:49.336Z,1.97
2018-06-11T22:14:26.383Z,1.80
2018-06-11T22:17:12.612Z,2.03
2018-06-11T22:19:44.528Z,2.20
2018-06-11T22:22:32.017Z,2.70
2018-06-11T22:25:09.715Z,2.60
2018-06-11T22:27:46.319Z,1.80
2018-06-11T22:30:27.800Z,1.80
2018-06-11T22:33:04.371Z,2.00
2018-06-11T22:35:40.506Z,1.93
2018-06-11T22:38:16.644Z,2.20
2018-06-11T22:40:51.033Z,2.03
2018-06-11T22:43:22.207Z,2.37
2018-06-11T22:46:00.137Z,2.03
2018-06-11T22:48:33.210Z,1.97
2018-06-11T22:51:15.363Z,1.83
2018-06-11T22:53:50.492Z,1.80
2018-06-11T22:56:33.405Z,2.27
2018-06-11T22:59:03.989Z,1.93
2018-06-11T23:01:46.598Z,1.53
2018-06-11T23:04:20.685Z,2.03
2018-06-11T23:06:57.101Z,1.60
2018-06-11T23:09:31.461Z,1.90
2018-06-11T23:12:08.855Z,1.73
2018-06-11T23:14:51.883Z,1.93
2018-06-11T23:17:26.558Z,2.30
2018-06-11T23:19:57.006Z,2.30
2018-06-11T23:22:35.197Z,2.53
2018-06-11T23:25:05.567Z,2.67
2018-06-11T23:27:36.063Z,2.40
2018-06-11T23:30:10.612Z,2.60
2018-06-11T23:32:50.631Z,2.37
2018-06-11T23:35:29.178Z,2.23
2018-06-11T23:38:03.256Z,2.23
2018-06-11T23:40:34.874Z,1.80
2018-06-11T23:43:11.591Z,2.90
2018-06-11T23:45:46.955Z,2.00
2018-06-11T23:48:28.069Z,2.43
2018-06-11T23:51:10.239Z,2.73
2018-06-11T23:53:42.088Z,2.07
2018-06-11T23:56:14.593Z,2.17
2018-06-11T23:58:45.186Z,2.13
